Time;durP1;ratioP1;P1;durP2;ratioP2;P2;SDS_P1;SDS_P2;PMS_P1;PMS_P2;Temp;Humidity;BMP_temperature;BMP_pressure;BME280_temperature;BME280_humidity;BME280_pressure;Samples;Min_cycle;Max_cycle;Signal;HPM_P1;HPM_P2
2022/06/14 00:01:01;;;;;;;;;;;;;;;23.19;59.97;99708.22;2084154;28;19916;-53
2022/06/14 00:02:01;;;;;;;;;;;;;;;23.19;60.02;99713.72;2085743;28;19920;-53
2022/06/14 00:03:01;;;;;;;;;;;;;;;23.19;59.95;99714.56;2078484;28;19917;-54
2022/06/14 00:04:02;;;;;;;;;;;;;;;23.18;60.03;99712.88;2083839;28;19943;-52
2022/06/14 00:05:02;;;;;;;;;;;;;;;23.18;60.11;99707.38;2084735;28;19920;-52
2022/06/14 00:06:04;;;;;;;;;;;;;;;23.18;60.22;99712.03;2087663;28;19916;-53
2022/06/14 00:07:05;;;;;;;;;;;;;;;23.19;60.17;99713.72;2083358;28;19994;-53
2022/06/14 00:08:05;;;;;;;;;;;;;;;23.19;60.21;99708.22;2084430;28;20409;-53
2022/06/14 00:09:06;;;;;;;;;;;;;;;23.18;60.22;99707.38;2074471;28;19927;-51
2022/06/14 00:10:06;;;;;;;;;;;;;;;23.17;60.08;99700.16;2079624;28;21012;-53
2022/06/14 00:11:11;;;;;;;;;;;;;;;23.18;60.04;99706.53;2088706;28;19967;-55
2022/06/14 00:12:13;;;;;;;;;;;;;;;23.18;60.11;99703.78;2089749;28;20261;-53
2022/06/14 00:13:13;;;;;;;;;;;;;;;23.17;60.19;99707.56;2080082;28;19916;-52
2022/06/14 00:14:14;;;;;;;;;;;;;;;23.17;60.05;99711.16;2081447;28;19917;-53
2022/06/14 00:15:14;;;;;;;;;;;;;;;23.17;60.13;99710.31;2083886;28;19916;-53
2022/06/14 00:16:15;;;;;;;;;;;;;;;23.17;60.30;99704.81;2081055;28;19921;-52
2022/06/14 00:17:15;;;;;;;;;;;;;;;23.17;60.16;99705.66;2087458;28;19915;-53
2022/06/14 00:18:16;;;;;;;;;;;;;;;23.18;60.18;99701.03;2084466;28;20015;-53
2022/06/14 00:19:17;;;;;;;;;;;;;;;23.17;60.16;99702.91;2080097;28;19917;-52
2022/06/14 00:20:17;;;;;;;;;;;;;;;23.18;60.15;99709.28;2085045;28;19917;-53
2022/06/14 00:21:18;;;;;;;;;;;;;;;23.18;60.14;99709.28;2083437;28;19923;-52
2022/06/14 00:22:18;;;;;;;;;;;;;;;23.18;60.07;99706.53;2084078;28;19913;-53
2022/06/14 00:23:19;;;;;;;;;;;;;;;23.18;60.06;99695.53;2088808;28;19916;-53
2022/06/14 00:24:19;;;;;;;;;;;;;;;23.18;60.07;99701.03;2083386;28;19944;-56
2022/06/14 00:25:30;;;;;;;;;;;;;;;23.19;60.06;99702.72;2082512;28;19917;-53
2022/06/14 00:26:31;;;;;;;;;;;;;;;23.19;60.09;99705.47;2083605;28;19921;-52
2022/06/14 00:27:31;;;;;;;;;;;;;;;23.19;60.01;99702.72;2081287;28;19908;-53
2022/06/14 00:28:33;;;;;;;;;;;;;;;23.19;59.97;99709.06;2081754;28;19935;-53
2022/06/14 00:29:33;;;;;;;;;;;;;;;23.20;59.97;99698.91;2084669;28;19998;-52
2022/06/14 00:30:34;;;;;;;;;;;;;;;23.19;60.08;99697.22;2085448;28;20333;-53
2022/06/14 00:31:34;;;;;;;;;;;;;;;23.19;59.99;99703.56;2081632;28;19925;-53
2022/06/14 00:32:35;;;;;;;;;;;;;;;23.20;60.06;99696.16;2081034;28;19959;-53
2022/06/14 00:33:35;;;;;;;;;;;;;;;23.20;59.95;99698.91;2088807;28;20397;-53
2022/06/14 00:34:36;;;;;;;;;;;;;;;23.19;60.01;99692.56;2085169;28;19916;-53
2022/06/14 00:35:37;;;;;;;;;;;;;;;23.19;59.99;99691.72;2081066;28;19916;-53
2022/06/14 00:36:37;;;;;;;;;;;;;;;23.20;59.92;99698.91;2088427;28;20120;-53
2022/06/14 00:37:37;;;;;;;;;;;;;;;23.19;60.08;99698.06;2086159;28;19927;-53
2022/06/14 00:38:38;;;;;;;;;;;;;;;23.19;60.03;99692.56;2087459;28;19916;-53
2022/06/14 00:39:38;;;;;;;;;;;;;;;23.19;59.99;99691.72;2090753;28;19969;-53
2022/06/14 00:40:39;;;;;;;;;;;;;;;23.19;59.96;99697.22;2084274;28;20409;-53
2022/06/14 00:41:41;;;;;;;;;;;;;;;23.18;59.98;99690.88;2090070;28;20567;-53
2022/06/14 00:42:42;;;;;;;;;;;;;;;23.18;59.99;99690.03;2083067;28;19916;-53
2022/06/14 00:43:42;;;;;;;;;;;;;;;23.18;60.05;99687.28;2083180;28;19916;-53
2022/06/14 00:44:42;;;;;;;;;;;;;;;23.18;60.08;99690.88;2077518;28;19931;-53
2022/06/14 00:45:43;;;;;;;;;;;;;;;23.18;60.11;99685.38;2076373;28;19921;-53
2022/06/14 00:46:52;;;;;;;;;;;;;;;23.18;60.13;99687.28;2074679;28;19917;-53
2022/06/14 00:48:07;;;;;;;;;;;;;;;23.18;60.17;99687.28;2076226;28;19916;-53
2022/06/14 00:49:28;;;;;;;;;;;;;;;23.18;60.13;99684.53;2076055;28;19916;-53
2022/06/14 00:50:43;;;;;;;;;;;;;;;23.17;60.17;99682.81;2072689;28;20021;-53
2022/06/14 00:51:54;;;;;;;;;;;;;;;23.17;60.11;99678.16;2073154;28;20263;-53
2022/06/14 00:52:58;;;;;;;;;;;;;;;23.19;60.19;99677.97;2075793;28;20740;-52
2022/06/14 00:54:10;;;;;;;;;;;;;;;23.17;60.07;99677.31;2073404;28;19913;-53
2022/06/14 00:55:13;;;;;;;;;;;;;;;23.18;60.05;99676.28;2070781;28;19928;-53
2022/06/14 00:56:20;;;;;;;;;;;;;;;23.18;60.13;99674.38;2071093;28;19964;-53
2022/06/14 00:57:26;;;;;;;;;;;;;;;23.19;60.02;99680.72;2078066;28;19923;-53
2022/06/14 00:58:38;;;;;;;;;;;;;;;23.19;60.08;99678.81;2071654;28;20691;-53
2022/06/14 00:59:42;;;;;;;;;;;;;;;23.19;59.94;99676.06;2075670;28;19927;-52
2022/06/14 01:00:46;;;;;;;;;;;;;;;23.19;60.02;99672.47;2076688;28;19924;-53
2022/06/14 01:01:49;;;;;;;;;;;;;;;23.20;59.95;99674.16;2074936;28;20008;-53
2022/06/14 01:02:50;;;;;;;;;;;;;;;23.19;59.94;99669.72;2077458;28;20007;-53
2022/06/14 01:04:11;;;;;;;;;;;;;;;23.20;60.02;99671.41;2074913;28;20266;-53
2022/06/14 01:05:15;;;;;;;;;;;;;;;23.19;59.98;99673.31;2075240;28;20208;-53
2022/06/14 01:06:19;;;;;;;;;;;;;;;23.19;59.90;99670.56;2076243;28;19975;-53
2022/06/14 01:07:20;;;;;;;;;;;;;;;23.20;60.06;99668.69;2068685;28;20555;-53
2022/06/14 01:08:21;;;;;;;;;;;;;;;23.20;59.93;99671.41;2070608;28;19921;-53
2022/06/14 01:09:37;;;;;;;;;;;;;;;23.19;59.85;99669.72;2077929;28;19948;-53
2022/06/14 01:10:37;;;;;;;;;;;;;;;23.19;59.93;99676.06;2068783;28;19971;-52
2022/06/14 01:11:37;;;;;;;;;;;;;;;23.20;59.97;99671.41;2070586;28;19912;-53
2022/06/14 01:12:43;;;;;;;;;;;;;;;23.20;59.96;99677.81;2077213;28;20239;-53
2022/06/14 01:13:43;;;;;;;;;;;;;;;23.20;59.88;99671.41;2074898;28;19934;-53
2022/06/14 01:14:52;;;;;;;;;;;;;;;23.20;59.98;99674.16;2075458;28;19921;-53
2022/06/14 01:15:54;;;;;;;;;;;;;;;23.19;59.98;99670.56;2078267;28;19913;-52
2022/06/14 01:16:54;;;;;;;;;;;;;;;23.19;60.08;99676.06;2071436;28;19924;-52
2022/06/14 01:18:04;;;;;;;;;;;;;;;23.19;60.06;99670.56;2079351;28;20320;-53
2022/06/14 01:19:08;;;;;;;;;;;;;;;23.19;60.10;99675.22;2075346;28;20232;-53
2022/06/14 01:20:14;;;;;;;;;;;;;;;23.19;60.06;99666.97;2073053;28;19947;-52
2022/06/14 01:21:15;;;;;;;;;;;;;;;23.19;60.04;99677.97;2075809;28;19921;-53
2022/06/14 01:22:18;;;;;;;;;;;;;;;23.18;59.99;99666.13;2066197;28;19972;-53
2022/06/14 01:23:18;;;;;;;;;;;;;;;23.19;60.06;99677.97;2065406;28;20346;-53
2022/06/14 01:24:20;;;;;;;;;;;;;;;23.18;60.13;99670.78;2077845;28;19921;-55
2022/06/14 01:25:21;;;;;;;;;;;;;;;23.18;60.05;99673.53;2075265;28;20346;-52
2022/06/14 01:26:23;;;;;;;;;;;;;;;23.18;60.21;99673.53;2076305;28;19916;-52
2022/06/14 01:27:24;;;;;;;;;;;;;;;23.18;60.12;99674.38;2076094;28;20251;-53
2022/06/14 01:28:25;;;;;;;;;;;;;;;23.17;60.08;99666.31;2073675;28;19924;-52
2022/06/14 01:29:26;;;;;;;;;;;;;;;23.18;60.10;99670.78;2077671;28;19916;-52
2022/06/14 01:30:30;;;;;;;;;;;;;;;23.19;60.09;99666.97;2082277;28;19970;-52
2022/06/14 01:31:31;;;;;;;;;;;;;;;23.19;60.04;99672.47;2078771;28;19928;-53
2022/06/14 01:32:35;;;;;;;;;;;;;;;23.19;60.32;99670.56;2087757;28;19915;-53
2022/06/14 01:33:43;;;;;;;;;;;;;;;23.19;60.06;99669.72;2075225;28;19924;-53
2022/06/14 01:34:46;;;;;;;;;;;;;;;23.19;60.08;99669.72;2076607;28;20247;-53
2022/06/14 01:35:49;;;;;;;;;;;;;;;23.19;59.93;99669.72;2070467;28;20008;-53
2022/06/14 01:36:50;;;;;;;;;;;;;;;23.19;60.02;99667.81;2080470;28;19916;-53
2022/06/14 01:37:52;;;;;;;;;;;;;;;23.20;60.00;99668.69;2080085;28;19920;-53
2022/06/14 01:38:53;;;;;;;;;;;;;;;23.20;59.97;99665.94;2084145;28;19988;-52
2022/06/14 01:39:55;;;;;;;;;;;;;;;23.20;60.01;99671.41;2079825;28;19944;-53
2022/06/14 01:40:58;;;;;;;;;;;;;;;23.20;59.98;99668.69;2086085;28;20298;-53
2022/06/14 01:42:25;;;;;;;;;;;;;;;23.21;59.96;99667.66;2075759;28;19927;-52
2022/06/14 01:43:35;;;;;;;;;;;;;;;23.20;59.85;99671.41;2075607;28;20317;-53
2022/06/14 01:44:44;;;;;;;;;;;;;;;23.21;59.93;99673.16;2081672;28;19928;-51
2022/06/14 01:45:54;;;;;;;;;;;;;;;23.20;59.97;99668.69;2086871;28;19924;-51
2022/06/14 01:47:13;;;;;;;;;;;;;;;23.21;59.98;99667.66;2077198;28;19917;-51
2022/06/14 01:48:21;;;;;;;;;;;;;;;23.21;59.93;99667.66;2080053;28;20359;-50
2022/06/14 01:52:37;;;;;;;;;;;;;;;23.19;60.08;99667.81;2086735;28;19916;-51
2022/06/14 01:53:37;;;;;;;;;;;;;;;23.20;60.08;99671.41;2086716;28;19939;-50
2022/06/14 01:54:37;;;;;;;;;;;;;;;23.19;60.09;99675.22;2095262;28;20982;-49
2022/06/14 01:55:43;;;;;;;;;;;;;;;23.18;60.11;99671.63;2086126;28;20238;-51
2022/06/14 01:56:48;;;;;;;;;;;;;;;23.19;60.16;99676.06;2092106;28;19927;-50
2022/06/14 01:57:56;;;;;;;;;;;;;;;23.18;60.10;99674.38;2085436;28;20687;-51
2022/06/14 01:59:05;;;;;;;;;;;;;;;23.19;60.13;99669.72;2085653;28;19916;-51
2022/06/14 02:00:06;;;;;;;;;;;;;;;23.19;60.09;99675.22;2085353;28;20463;-51
2022/06/14 02:01:16;;;;;;;;;;;;;;;23.19;60.11;99675.22;2084659;28;19924;-50
2022/06/14 02:02:28;;;;;;;;;;;;;;;23.18;60.06;99663.38;2086583;28;19917;-51
2022/06/14 02:05:09;;;;;;;;;;;;;;;23.19;60.14;99665.06;2079887;28;19920;-51
2022/06/14 02:06:19;;;;;;;;;;;;;;;23.18;60.09;99663.38;2084961;28;19943;-52
2022/06/14 02:07:21;;;;;;;;;;;;;;;23.18;60.08;99663.38;2086957;28;20392;-53
2022/06/14 02:08:24;;;;;;;;;;;;;;;23.19;60.10;99664.22;2080848;28;19943;-52
2022/06/14 02:09:31;;;;;;;;;;;;;;;23.19;60.13;99666.97;2081022;28;19917;-50
2022/06/14 02:10:35;;;;;;;;;;;;;;;23.19;59.95;99664.22;2086169;28;19932;-53
2022/06/14 02:11:36;;;;;;;;;;;;;;;23.20;60.02;99665.94;2082218;28;20373;-51
2022/06/14 02:12:55;;;;;;;;;;;;;;;23.19;59.95;99667.81;2081819;28;19952;-51
2022/06/14 02:14:28;;;;;;;;;;;;;;;23.20;59.97;99665.94;2084630;28;20265;-51
2022/06/14 02:15:42;;;;;;;;;;;;;;;23.20;59.89;99668.69;2052618;28;20044;-50
2022/06/14 02:17:00;;;;;;;;;;;;;;;23.20;59.92;99672.31;2083194;28;19917;-50
2022/06/14 02:18:10;;;;;;;;;;;;;;;23.21;59.96;99670.41;2081361;28;19924;-51
2022/06/14 02:19:17;;;;;;;;;;;;;;;23.20;59.86;99664.06;2083958;28;19916;-50
2022/06/14 02:20:22;;;;;;;;;;;;;;;23.20;59.93;99661.31;2085200;28;21012;-51
2022/06/14 02:21:25;;;;;;;;;;;;;;;23.21;59.84;99664.91;2086074;28;19912;-51
2022/06/14 02:22:30;;;;;;;;;;;;;;;23.21;59.88;99662.16;2086597;28;20017;-51
2022/06/14 02:23:33;;;;;;;;;;;;;;;23.20;59.92;99666.81;2087886;28;20222;-51
2022/06/14 02:24:41;;;;;;;;;;;;;;;23.21;59.80;99664.91;2085833;28;20335;-50
2022/06/14 02:25:52;;;;;;;;;;;;;;;23.21;59.95;99662.16;2081290;28;19916;-51
2022/06/14 02:26:53;;;;;;;;;;;;;;;23.19;59.90;99665.06;2086005;28;19982;-51
2022/06/14 02:28:22;;;;;;;;;;;;;;;23.20;60.00;99660.44;2085991;28;19908;-51
2022/06/14 02:29:29;;;;;;;;;;;;;;;23.19;60.03;99665.06;2079754;28;19927;-50
2022/06/14 02:30:34;;;;;;;;;;;;;;;23.19;60.05;99658.72;2088808;28;20003;-51
2022/06/14 02:31:41;;;;;;;;;;;;;;;23.18;60.08;99663.38;2087166;28;19921;-51
2022/06/14 02:32:44;;;;;;;;;;;;;;;23.18;60.12;99663.38;2085429;28;19923;-51
2022/06/14 02:34:05;;;;;;;;;;;;;;;23.19;60.03;99655.97;2087307;28;20429;-51
2022/06/14 02:35:08;;;;;;;;;;;;;;;23.19;60.16;99669.72;2084946;28;20500;-49
2022/06/14 02:36:15;;;;;;;;;;;;;;;23.18;60.15;99657.03;2086023;28;20440;-51
2022/06/14 02:37:19;;;;;;;;;;;;;;;23.18;60.05;99657.03;2084549;28;19955;-51
2022/06/14 02:38:19;;;;;;;;;;;;;;;23.19;60.11;99661.47;2090173;28;19916;-53
2022/06/14 02:39:33;;;;;;;;;;;;;;;23.17;60.03;99660.81;2086482;28;19916;-51
2022/06/14 02:40:37;;;;;;;;;;;;;;;23.19;60.08;99666.97;2087179;28;20687;-51
2022/06/14 02:41:44;;;;;;;;;;;;;;;23.18;60.00;99668.03;2086224;28;19916;-50
2022/06/14 02:42:47;;;;;;;;;;;;;;;23.19;60.04;99669.72;2087104;28;19958;-51
2022/06/14 02:43:50;;;;;;;;;;;;;;;23.19;60.03;99669.72;2087016;28;19917;-51
2022/06/14 02:44:51;;;;;;;;;;;;;;;23.20;60.05;99671.41;2086624;28;20506;-51
2022/06/14 02:45:59;;;;;;;;;;;;;;;23.19;60.01;99662.31;2089705;28;19905;-50
2022/06/14 02:47:18;;;;;;;;;;;;;;;23.20;59.96;99663.19;2083955;28;20227;-51
2022/06/14 02:48:29;;;;;;;;;;;;;;;23.20;59.87;99665.94;2082603;28;19916;-51
2022/06/14 02:49:29;;;;;;;;;;;;;;;23.19;59.97;99659.56;2081680;28;19908;-50
2022/06/14 02:50:29;;;;;;;;;;;;;;;23.20;59.96;99663.19;2086369;28;19909;-51
2022/06/14 02:51:34;;;;;;;;;;;;;;;23.20;59.85;99654.94;2084002;28;19913;-50
2022/06/14 02:52:39;;;;;;;;;;;;;;;23.21;59.95;99662.16;2084669;28;19924;-49
2022/06/14 02:53:43;;;;;;;;;;;;;;;23.20;59.81;99658.56;2086086;28;19920;-51
2022/06/14 02:54:52;;;;;;;;;;;;;;;23.21;59.80;99659.41;2084682;28;19917;-50
2022/06/14 02:56:03;;;;;;;;;;;;;;;23.20;59.94;99652.19;2084679;28;20869;-51
2022/06/14 02:57:12;;;;;;;;;;;;;;;23.21;59.94;99656.66;2076601;28;19971;-51
2022/06/14 02:58:49;;;;;;;;;;;;;;;23.20;59.83;99657.69;2084726;28;19916;-51
2022/06/14 02:59:53;;;;;;;;;;;;;;;23.20;59.81;99654.94;2066279;28;19917;-51
2022/06/14 03:00:58;;;;;;;;;;;;;;;23.20;59.84;99650.31;2067847;28;20399;-50
2022/06/14 03:02:01;;;;;;;;;;;;;;;23.19;59.94;99651.34;2071455;28;19940;-51
2022/06/14 03:03:06;;;;;;;;;;;;;;;23.21;60.01;99656.66;2083014;28;19939;-51
2022/06/14 03:04:15;;;;;;;;;;;;;;;23.19;60.10;99647.72;2085565;28;20390;-51
2022/06/14 03:05:22;;;;;;;;;;;;;;;23.19;60.02;99653.22;2083098;28;20294;-50
2022/06/14 03:06:22;;;;;;;;;;;;;;;23.18;59.99;99648.78;2084274;28;19921;-50
2022/06/14 03:07:28;;;;;;;;;;;;;;;23.19;60.08;99653.22;2085956;28;19909;-50
2022/06/14 03:08:31;;;;;;;;;;;;;;;23.19;60.01;99647.72;2084839;28;20327;-51
2022/06/14 03:09:34;;;;;;;;;;;;;;;23.18;60.14;99646.88;2082434;28;19912;-51
2022/06/14 03:10:44;;;;;;;;;;;;;;;23.18;59.99;99646.03;2086182;28;19916;-51
2022/06/14 03:12:00;;;;;;;;;;;;;;;23.18;59.99;99646.03;2084170;28;19964;-51
2022/06/14 03:13:12;;;;;;;;;;;;;;;23.18;60.13;99646.03;2086050;28;19917;-50
2022/06/14 03:14:13;;;;;;;;;;;;;;;23.18;60.03;99646.03;2093359;28;20019;-51
2022/06/14 03:15:23;;;;;;;;;;;;;;;23.18;60.01;99646.88;2084503;28;19923;-51
2022/06/14 03:16:35;;;;;;;;;;;;;;;23.18;59.97;99652.38;2083959;28;19924;-51
2022/06/14 03:17:38;;;;;;;;;;;;;;;23.19;60.09;99647.72;2085149;28;20248;-50
2022/06/14 03:18:42;;;;;;;;;;;;;;;23.19;60.05;99655.97;2085677;28;19909;-50
2022/06/14 03:19:45;;;;;;;;;;;;;;;23.19;59.83;99647.72;2087478;28;19916;-51
2022/06/14 03:20:57;;;;;;;;;;;;;;;23.20;59.93;99654.94;2092653;28;19923;-51
2022/06/14 03:22:05;;;;;;;;;;;;;;;23.19;59.93;99647.72;2086442;28;19916;-51
2022/06/14 03:23:12;;;;;;;;;;;;;;;23.19;59.91;99653.22;2084069;28;19966;-50
2022/06/14 03:24:15;;;;;;;;;;;;;;;23.20;60.04;99649.44;2084736;28;20007;-51
2022/06/14 03:25:34;;;;;;;;;;;;;;;23.20;59.85;99655.81;2094672;28;20234;-51
2022/06/14 03:26:45;;;;;;;;;;;;;;;23.20;59.83;99654.94;2092140;28;20395;-51
2022/06/14 03:27:51;;;;;;;;;;;;;;;23.19;59.94;99648.59;2090226;28;19916;-51
2022/06/14 03:28:58;;;;;;;;;;;;;;;23.20;59.86;99652.19;2088095;28;20285;-51
2022/06/14 03:30:00;;;;;;;;;;;;;;;23.20;59.72;99654.94;2076542;28;19921;-51
2022/06/14 03:31:06;;;;;;;;;;;;;;;23.20;59.81;99650.31;2085768;28;19963;-49
2022/06/14 03:32:14;;;;;;;;;;;;;;;23.20;59.89;99649.44;2084188;28;20397;-51
2022/06/14 03:33:14;;;;;;;;;;;;;;;23.20;59.80;99649.44;2078997;28;19952;-51
2022/06/14 03:34:25;;;;;;;;;;;;;;;23.20;59.85;99650.31;2085956;28;19924;-51
2022/06/14 03:35:26;;;;;;;;;;;;;;;23.19;59.80;99655.97;2089869;28;19955;-51
2022/06/14 03:36:27;;;;;;;;;;;;;;;23.19;59.83;99658.72;2085342;28;19916;-51
2022/06/14 03:37:27;;;;;;;;;;;;;;;23.19;59.87;99647.72;2084589;28;19927;-51
2022/06/14 03:38:32;;;;;;;;;;;;;;;23.19;60.05;99655.97;2085921;28;19940;-51
2022/06/14 03:39:34;;;;;;;;;;;;;;;23.20;59.96;99654.94;2083683;28;20014;-51
2022/06/14 03:40:35;;;;;;;;;;;;;;;23.19;59.97;99658.72;2085324;28;20401;-50
2022/06/14 03:41:37;;;;;;;;;;;;;;;23.18;60.12;99660.63;2085496;28;19971;-50
2022/06/14 03:42:38;;;;;;;;;;;;;;;23.18;60.01;99657.88;2086330;28;20258;-50
2022/06/14 03:43:39;;;;;;;;;;;;;;;23.18;60.11;99657.03;2084030;28;20759;-51
2022/06/14 03:44:40;;;;;;;;;;;;;;;23.19;60.18;99658.72;2085169;28;20343;-51
2022/06/14 03:45:49;;;;;;;;;;;;;;;23.17;60.01;99660.81;2083454;28;19920;-51
2022/06/14 03:47:08;;;;;;;;;;;;;;;23.18;60.14;99657.03;2085691;28;19942;-51
2022/06/14 03:48:09;;;;;;;;;;;;;;;23.17;60.07;99658.06;2077918;28;19932;-51
2022/06/14 03:49:11;;;;;;;;;;;;;;;23.19;60.16;99661.47;2084177;28;19984;-51
2022/06/14 03:50:13;;;;;;;;;;;;;;;23.18;60.02;99657.03;2082746;28;19920;-51
2022/06/14 03:51:19;;;;;;;;;;;;;;;23.17;60.01;99661.66;2079729;28;19948;-51
2022/06/14 03:52:19;;;;;;;;;;;;;;;23.19;59.99;99664.22;2080738;28;19924;-51
2022/06/14 03:53:36;;;;;;;;;;;;;;;23.18;60.02;99657.03;2083344;28;19922;-51
2022/06/14 03:54:43;;;;;;;;;;;;;;;23.19;59.97;99658.72;2080418;28;19924;-51
2022/06/14 03:56:14;;;;;;;;;;;;;;;23.19;60.01;99653.22;2083776;28;20025;-50
2022/06/14 03:57:34;;;;;;;;;;;;;;;23.20;59.90;99665.94;2085676;28;20320;-50
2022/06/14 03:58:37;;;;;;;;;;;;;;;23.19;59.89;99658.72;2085393;28;19916;-51
2022/06/14 03:59:56;;;;;;;;;;;;;;;23.19;60.02;99656.81;2075394;28;19923;-51
2022/06/14 04:01:11;;;;;;;;;;;;;;;23.19;59.88;99658.72;2079548;28;19909;-53
2022/06/14 04:02:17;;;;;;;;;;;;;;;23.20;59.94;99654.94;2094836;28;19923;-53
2022/06/14 04:03:32;;;;;;;;;;;;;;;23.20;59.79;99649.44;2091291;28;19916;-53
2022/06/14 04:04:35;;;;;;;;;;;;;;;23.20;59.83;99654.94;2090548;28;19924;-53
2022/06/14 04:05:42;;;;;;;;;;;;;;;23.20;59.78;99655.81;2093354;28;19981;-53
2022/06/14 04:06:53;;;;;;;;;;;;;;;23.20;59.73;99658.56;2076580;28;20304;-56
2022/06/14 04:08:09;;;;;;;;;;;;;;;23.20;59.97;99657.69;2086177;28;19916;-52
2022/06/14 04:09:15;;;;;;;;;;;;;;;23.19;59.90;99654.06;2090587;28;19912;-52
2022/06/14 04:10:26;;;;;;;;;;;;;;;23.18;59.87;99652.38;2094169;28;19916;-53
2022/06/14 04:11:26;;;;;;;;;;;;;;;23.19;59.87;99661.47;2084280;28;19984;-53
2022/06/14 04:12:30;;;;;;;;;;;;;;;23.19;59.96;99658.72;2084607;28;20012;-53
2022/06/14 04:13:40;;;;;;;;;;;;;;;23.18;59.88;99657.88;2094576;28;20752;-52
2022/06/14 04:14:50;;;;;;;;;;;;;;;23.18;60.01;99663.38;2083508;28;19916;-53
2022/06/14 04:15:54;;;;;;;;;;;;;;;23.19;60.09;99658.72;2083793;28;19917;-53
2022/06/14 04:17:09;;;;;;;;;;;;;;;23.17;60.14;99655.31;2085853;28;19916;-53
2022/06/14 04:18:35;;;;;;;;;;;;;;;23.18;60.05;99657.03;2077218;28;20220;-53
2022/06/14 04:19:35;;;;;;;;;;;;;;;23.17;60.18;99658.91;2074330;28;20425;-53
2022/06/14 04:20:39;;;;;;;;;;;;;;;23.17;60.15;99667.16;2084568;28;19912;-53
2022/06/14 04:21:40;;;;;;;;;;;;;;;23.17;60.18;99661.66;2092949;28;20243;-53
2022/06/14 04:22:53;;;;;;;;;;;;;;;23.17;60.07;99661.66;2084301;28;20273;-53
2022/06/14 04:24:07;;;;;;;;;;;;;;;23.18;60.14;99663.38;2083669;28;20492;-53
2022/06/14 04:25:19;;;;;;;;;;;;;;;23.18;60.25;99662.53;2084097;28;20238;-53
2022/06/14 04:26:25;;;;;;;;;;;;;;;23.18;59.94;99663.38;2075707;28;19932;-53
2022/06/14 04:27:37;;;;;;;;;;;;;;;23.19;60.04;99664.22;2082548;28;20371;-53
2022/06/14 04:28:55;;;;;;;;;;;;;;;23.18;60.06;99663.38;2085181;28;19920;-53
2022/06/14 04:30:03;;;;;;;;;;;;;;;23.19;60.09;99664.22;2084335;28;19939;-53
2022/06/14 04:31:06;;;;;;;;;;;;;;;23.19;59.91;99669.72;2084509;28;19913;-52
2022/06/14 04:32:30;;;;;;;;;;;;;;;23.18;59.88;99662.53;2081044;28;19923;-53
2022/06/14 04:33:49;;;;;;;;;;;;;;;23.18;59.98;99663.38;2071651;28;19952;-53
2022/06/14 04:35:00;;;;;;;;;;;;;;;23.18;59.96;99668.03;2081579;28;19945;-53
2022/06/14 04:36:05;;;;;;;;;;;;;;;23.19;59.88;99664.22;2084422;28;20351;-53
2022/06/14 04:37:08;;;;;;;;;;;;;;;23.19;59.81;99666.97;2086020;28;20017;-53
2022/06/14 04:38:09;;;;;;;;;;;;;;;23.20;59.86;99665.94;2084089;28;20227;-53
2022/06/14 04:39:12;;;;;;;;;;;;;;;23.19;59.90;99669.72;2087399;28;19939;-53
2022/06/14 04:40:15;;;;;;;;;;;;;;;23.20;59.86;99668.69;2085385;28;19916;-53
2022/06/14 04:41:20;;;;;;;;;;;;;;;23.19;59.90;99667.81;2084351;28;19916;-53
2022/06/14 04:42:29;;;;;;;;;;;;;;;23.20;59.85;99671.41;2082658;28;20233;-53
2022/06/14 04:43:38;;;;;;;;;;;;;;;23.19;59.95;99667.81;2085401;28;19999;-53
2022/06/14 04:44:45;;;;;;;;;;;;;;;23.19;59.83;99661.47;2076068;28;19924;-53
2022/06/14 04:45:54;;;;;;;;;;;;;;;23.19;59.85;99664.22;2080674;28;20006;-53
2022/06/14 04:47:01;;;;;;;;;;;;;;;23.19;59.96;99664.22;2084208;28;19905;-53
2022/06/14 04:48:06;;;;;;;;;;;;;;;23.17;59.98;99660.81;2085341;28;19983;-53
2022/06/14 04:49:44;;;;;;;;;;;;;;;23.18;60.08;99673.53;2089604;28;19916;-53
2022/06/14 04:50:48;;;;;;;;;;;;;;;23.17;59.99;99675.41;2067100;28;19916;-51
2022/06/14 04:51:51;;;;;;;;;;;;;;;23.18;60.14;99663.38;2076023;28;19924;-53
2022/06/14 04:53:02;;;;;;;;;;;;;;;23.17;60.04;99671.81;2073456;28;20735;-52
2022/06/14 04:54:05;;;;;;;;;;;;;;;23.17;60.15;99671.81;2075502;28;19913;-53
2022/06/14 04:55:12;;;;;;;;;;;;;;;23.17;60.21;99663.56;2073782;28;20247;-53
2022/06/14 04:56:17;;;;;;;;;;;;;;;23.17;60.20;99667.16;2077232;28;20835;-53
2022/06/14 04:57:22;;;;;;;;;;;;;;;23.17;60.27;99667.16;2085983;28;20015;-53
2022/06/14 04:58:22;;;;;;;;;;;;;;;23.16;60.27;99659.97;2090224;28;19923;-52
2022/06/14 04:59:27;;;;;;;;;;;;;;;23.17;60.44;99666.31;2089421;28;20733;-53
2022/06/14 05:00:30;;;;;;;;;;;;;;;23.18;60.37;99668.03;2093130;28;20010;-53
2022/06/14 05:01:40;;;;;;;;;;;;;;;23.17;60.24;99669.91;2086822;28;19916;-53
2022/06/14 05:02:47;;;;;;;;;;;;;;;23.18;60.14;99662.53;2084115;28;19923;-53
2022/06/14 05:03:56;;;;;;;;;;;;;;;23.17;60.27;99663.56;2093711;28;19912;-52
2022/06/14 05:04:59;;;;;;;;;;;;;;;23.17;60.11;99666.31;2081813;28;19959;-53
2022/06/14 05:05:59;;;;;;;;;;;;;;;23.18;60.15;99668.03;2083242;28;20011;-52
2022/06/14 05:07:04;;;;;;;;;;;;;;;23.17;60.04;99667.16;2087662;28;19916;-53
2022/06/14 05:08:04;;;;;;;;;;;;;;;23.18;60.03;99665.28;2088348;28;20933;-53
2022/06/14 05:09:11;;;;;;;;;;;;;;;23.17;59.99;99656.16;2089384;28;19920;-53
2022/06/14 05:10:17;;;;;;;;;;;;;;;23.18;60.00;99657.03;2077506;28;19917;-53
2022/06/14 05:11:17;;;;;;;;;;;;;;;23.18;60.02;99659.78;2086684;28;19916;-53
2022/06/14 05:12:28;;;;;;;;;;;;;;;23.18;60.12;99668.88;2088835;28;19917;-52
2022/06/14 05:13:41;;;;;;;;;;;;;;;23.18;59.87;99665.28;2084529;28;20271;-53
2022/06/14 05:14:47;;;;;;;;;;;;;;;23.18;59.97;99657.88;2083611;28;19915;-53
2022/06/14 05:15:52;;;;;;;;;;;;;;;23.18;59.98;99660.63;2082171;28;19920;-53
2022/06/14 05:16:56;;;;;;;;;;;;;;;23.17;59.87;99656.16;2085256;28;20364;-52
2022/06/14 05:18:06;;;;;;;;;;;;;;;23.18;59.96;99662.53;2088280;28;19916;-53
2022/06/14 05:19:09;;;;;;;;;;;;;;;23.18;60.02;99657.88;2086542;28;20195;-53
2022/06/14 05:20:15;;;;;;;;;;;;;;;23.18;59.92;99662.53;2091775;28;19916;-53
2022/06/14 05:21:21;;;;;;;;;;;;;;;23.18;59.96;99657.03;2089314;28;20239;-53
2022/06/14 05:22:25;;;;;;;;;;;;;;;23.18;59.94;99654.28;2086561;28;20097;-53
2022/06/14 05:23:38;;;;;;;;;;;;;;;23.18;59.80;99657.88;2091736;28;19969;-53
2022/06/14 05:24:39;;;;;;;;;;;;;;;23.18;59.92;99662.53;2090471;28;19920;-53
2022/06/14 05:26:02;;;;;;;;;;;;;;;23.18;59.91;99662.53;2083851;28;19953;-52
2022/06/14 05:27:27;;;;;;;;;;;;;;;23.18;59.97;99657.03;2078075;28;20322;-53
2022/06/14 05:28:35;;;;;;;;;;;;;;;23.18;60.07;99662.53;2088613;28;19916;-53
2022/06/14 05:29:42;;;;;;;;;;;;;;;23.17;60.09;99660.81;2083785;28;20425;-53
2022/06/14 05:30:57;;;;;;;;;;;;;;;23.17;60.03;99655.31;2083436;28;20310;-51
2022/06/14 05:32:04;;;;;;;;;;;;;;;23.16;59.99;99654.47;2082330;28;19913;-51
2022/06/14 05:33:17;;;;;;;;;;;;;;;23.16;60.07;99654.47;2084242;28;19999;-51
2022/06/14 05:34:40;;;;;;;;;;;;;;;23.16;60.15;99659.97;2082363;28;19913;-51
2022/06/14 05:35:46;;;;;;;;;;;;;;;23.17;60.22;99655.31;2078731;28;20647;-51
2022/06/14 05:36:56;;;;;;;;;;;;;;;23.17;60.18;99667.16;2081284;28;19939;-51
2022/06/14 05:38:12;;;;;;;;;;;;;;;23.16;60.16;99657.22;2084058;28;20239;-51
2022/06/14 05:39:31;;;;;;;;;;;;;;;23.17;60.20;99661.66;2080624;28;19917;-51
2022/06/14 05:40:41;;;;;;;;;;;;;;;23.17;60.22;99660.81;2083249;28;19913;-51
2022/06/14 05:41:46;;;;;;;;;;;;;;;23.16;60.22;99661.88;2077220;28;19963;-51
2022/06/14 05:42:58;;;;;;;;;;;;;;;23.17;60.03;99666.31;2077590;28;19975;-51
2022/06/14 05:44:10;;;;;;;;;;;;;;;23.18;60.06;99662.53;2078291;28;20003;-51
2022/06/14 05:45:10;;;;;;;;;;;;;;;23.17;60.09;99666.31;2083479;28;19921;-51
2022/06/14 05:46:14;;;;;;;;;;;;;;;23.18;60.05;99662.53;2084303;28;19955;-53
2022/06/14 05:47:17;;;;;;;;;;;;;;;23.17;60.00;99658.06;2082462;28;20213;-53
2022/06/14 05:48:24;;;;;;;;;;;;;;;23.18;60.06;99654.28;2085079;28;19938;-53
2022/06/14 05:49:29;;;;;;;;;;;;;;;23.18;59.95;99657.88;2083156;28;19917;-53
2022/06/14 05:50:33;;;;;;;;;;;;;;;23.19;59.94;99653.22;2084226;28;19923;-53
2022/06/14 05:51:38;;;;;;;;;;;;;;;23.18;60.01;99655.13;2084495;28;19920;-52